Sumterville, FL (33585)

3:04 PM EDT on August 28, 2016 (GMT -0400)
Sumterville | | Change Station

Elev 108 ft 28.74 °N, 82.06 °W | Updated 5 seconds ago

Partly Cloudy
Partly Cloudy
89.2 °F
Feels Like 97 °F
N
8.9
Wind Variable Wind from ESE
Gusts 12.3 mph

Today
High -- | Low -- °F
--% Chance of Precip.
Yesterday
High -- | Low -- °F
Precip. -- in
Pressure 29.96 in
Visibility 10.0 miles
Clouds Few 3800 ft
Heat Index 97 °F
Dew Point 73 °F
Humidity 59%
Rainfall 0.00 in
Snow Depth Not available.
7:04 AM 7:53 PM
Waning Crescent, 14% visible
METAR KLEE 281853Z 07010KT 10SM FEW038 33/24 A2996 RMK AO2 LTG DSNT W SLP144 T03330239
Pressure 29.96 in
Visibility 10.0 miles
Clouds Few 3800 ft
Heat Index 97 °F
Dew Point 73 °F
Humidity 59%
Rainfall 0.00 in
Snow Depth Not available.
7:04 AM 7:53 PM
Waning Crescent, 14% visible
METAR KLEE 281853Z 07010KT 10SM FEW038 33/24 A2996 RMK AO2 LTG DSNT W SLP144 T03330239

10-Day Weather Forecast

Almanac

Astronomy

Aug. 28, 2016 Rise Set
Actual Time
Civil Twilight
Nautical Twilight
Astronomical Twilight
Moon
Length of Visible Light
Length of Day
Tomorrow will be .
, % of the Moon is Illuminated

Today's Extremes

State Highs State Lows

Community

WunderPhotos

Upload Photos

1,935,660 photos uploaded!

WunderBlog® & News

Nearby

Air Quality

  Air Quality AQ Index Pollutant
Not available.

Snow Depth

Station Depth Elevation

Earthquake Activity

City Distance Mag. Time & Date
Minimum magnitude displayed is 2.5.

Coastal Water Temperatures

Place Temperature

Stations

Nearby Weather Stations

Station Location Temp. Windchill Dew Point Humidity Wind Precip. Elev Updated Type
                   

Watches & Warnings

There are currently no watches in effect.